AirNav   Bose Proflight Series 2 Wireless Aviation Headset
 
 1410 users online  

03CO Kugel-Strong Airport
Platteville, Colorado, USA

GOING TO PLATTEVILLE?


FAA INFORMATION EFFECTIVE 07 NOVEMBER 2019

Location

FAA Identifier: 03CO
Lat/Long: 40-12-45.0000N 104-44-40.0000W
40-12.750000N 104-44.666667W
40.2125000,-104.7444444
(estimated)
Elevation: 4950 ft. / 1509 m (estimated)
Variation: 11E (1985)
From city: 3 miles E of PLATTEVILLE, CO
Time zone: UTC -7 (UTC -6 during Daylight Saving Time)
Zip code: 80651

Airport Operations

Airport use: Private use. Permission required prior to landing
Activation date: 12/1960
Control tower: no
ARTCC: DENVER CENTER
FSS: DENVER FLIGHT SERVICE STATION
Attendance: UNATNDD
Wind indicator: yes
Segmented circle: no

Airport Communications

WX AWOS-3PT at GXY (14 nm N): 135.175 (970-352-3511)
WX AWOS-3 at EIK (18 nm SW): 133.825 (303-604-4339)
WX AWOS-3PT at FNL (19 nm NW): 135.075 (970-669-9187)
WX AWOS-3 at LMO (19 nm W): 120.0 (303-684-7545)

Nearby radio navigation aids

VOR radial/distance  VOR name  Freq  Var
GLLr194/19.6GILL VOR/DME114.2013E
DVVr336/19.9MILE HIGH VORTAC114.7008E
DENr343/24.3DENVER VOR/DME117.9008E
BJCr034/25.5JEFFCO VOR/DME115.4011E
FQFr339/31.9FALCON VORTAC116.3011E

 
NDB name  Hdg/Dist  Freq  Var  ID
COLLN122/13.840009EFN ..-. -.

Airport Services

Airframe service: NONE
Powerplant service: NONE
Bottled oxygen: NONE
Bulk oxygen: NONE

Runway Information

Runway 13/31

Dimensions: 4000 x 30 ft. / 1219 x 9 m
Surface: asphalt, in good condition
RUNWAY 13  RUNWAY 31
Traffic pattern: leftleft
Runway end identifier lights: nono
Obstructions: trees, 302 ft. from runway, 3:1 slope to clear
+35' TREES 92' FROM RWY THR ON RWY CNTRLN EXTNDD.
none
+4' FENCE 40' FROM AND PARALLEL TO RWY THR.

Airport Ownership and Management from official FAA records

Ownership: Privately-owned
Owner: COLE KUGEL
420 LONGVIEW CT
LONGMONT, CO 80501
Phone 303-776-5175

Airport Operational Statistics

Aircraft based on the field: 3
Single engine airplanes: 3
    

Additional Remarks

BINS AND HANGAR ON NW SIDE OF RWY 13.
FOR CD CTC DENVER APCH AT 303-342-1916.

Instrument Procedures

There are no published instrument procedures at 03CO.

Some nearby airports with instrument procedures:

KGXY - Greeley-Weld County Airport (14 nm N)
KEIK - Erie Municipal Airport (18 nm SW)
KFNL - Northern Colorado Regional Airport (19 nm NW)
KLMO - Vance Brand Airport (19 nm W)
KDEN - Denver International Airport (21 nm S)
 
Loc | Ops | Rwys | IFR | FBO | Links
Com | Nav | Svcs | Stats | Notes

AirBoss

 
Area around 03CO (Kugel-Strong Airport)
 
Road maps at: MapQuest Bing Google
 
Aerial photo
No photo
 
Sectional chart

 
Airport distance calculator
Flying to Kugel-Strong Airport? Find the distance to fly.

From to 03CO

Sunrise and sunset
Times for 22-Nov-2019
 Local
(UTC-7)
 Zulu
(UTC)
Morning civil twilight06:2413:24
Sunrise06:5413:54
Sunset16:3723:37
Evening civil twilight17:0600:06

Current date and time
Zulu (UTC)  22-Nov-2019 14:56:58
Local (UTC-7)  22-Nov-2019 07:56:58
 
METAR
KGXY 
14nm NE 
221407Z AUTO 08004KT 9SM -SN BKN008 M03/M04 A3008 RMK AO2 P0000 FZRANO
KEIK 
18nm SW 
221435Z AUTO 00000KT 2SM -SN OVC005 M02/M02 A3010 RMK AO2 T10201025
KFNL 
19nm NW 
221356Z AUTO 14005KT 8SM -SN FEW045 BKN070 OVC100 M03/M04 A3005 RMK AO2 SLP204 P0000 T10331039 FZRANO
KLMO 
19nm W 
221435Z AUTO 00000KT 10SM BKN006 OVC070 M01/M02 A3007 RMK AO2 T10061020
TAF
KDEN 
23nm S 
221403Z 2214/2318 22006KT 5SM -SN BR BKN050 OVC070 TEMPO 2214/2216 2SM -SN BR BKN015 OVC030 FM221600 24006KT P6SM SCT012 OVC050 TEMPO 2216/2218 BKN012 FM221900 32006KT P6SM SCT015 BKN050 FM222300 28005KT P6SM FEW020 BKN080 FM230200 22008KT P6SM SCT080
KBJC 
25nm SW 
221407Z 2214/2312 33005KT 3SM -SN BR OVC008 TEMPO 2214/2215 1SM -SN BR OVC004 FM221600 34005KT 4SM BR BKN004 OVC008 FM221800 30006KT P6SM SCT008 OVC012 FM222000 30006KT P6SM FEW020 BKN080 FM230100 21008KT P6SM SCT080 FM230700 25006KT P6SM SCT200
NOTAMs
Click for the latest NOTAMs
NOTAMs are issued by the DoD/FAA and will open in a separate window not controlled by AirNav.

 

 
 

Would you like to see your business listed on this page?

 If your business provides an interesting product or service to pilots, flight crews, aircraft, or users of the Kugel-Strong Airport, you should consider listing it here.  To start the listing process, click on the button below
 
Add a business
 

Other Pages about Kugel-Strong Airport

Update a link
 
Copyright © AirNav, LLC. All rights reserved. Privacy Policy  Contact